Soleil Weather Down

Nearby METAR Reports

 

KCNI - Canton/Cherokee, Georgia, USA
Distance from station: ENE 6mi, 10km
Updated: Wed, 04-Aug-2021 4:55am EDT
Haze, Overcast
Haze, Overcast
 Wind from calm
Wind: Calm
Barometer: 30.03 inHg , 1016.9 hPa
Summary: Haze
Clouds: Overcast
Visibility: 5 miles , 8 km
Cloud details: Overcast 3900 ft
2021/08/04 08:55 KCNI 040855Z AUTO 00000KT 5SM HZ OVC039 A3003 RMK AO2
KRYY - Marietta Mccolum, Georgia, USA
Distance from station: SSW 18mi, 29km
Updated: Wed, 04-Aug-2021 5:02am EDT
Mostly cloudy
Mostly cloudy
 Wind from calm
Wind: Calm
Temperature: 68°F , 20°C
Dew Point: 66°F , 19°C
Humidity: 94%
Barometer: 30.02 inHg , 1016.6 hPa
Clouds: Mostly cloudy
Visibility: 10 miles , 16 km
Cloud details: Few Clouds 300 ft
Mostly cloudy 3100 ft
2021/08/04 09:02 KRYY 040902Z AUTO 00000KT 10SM FEW003 BKN031 20/19 A3002 RMK AO2 $
KVPC - Cartersville, Georgia, USA
Distance from station: WSW 22mi, 35km
Updated: Wed, 04-Aug-2021 4:55am EDT
Overcast
Overcast
 Wind from calm
Wind: Calm
Temperature: 68°F , 20°C
Dew Point: 66°F , 19°C
Humidity: 94%
Barometer: 30.01 inHg , 1016.3 hPa
Clouds: Overcast
Visibility: 9 miles , 14 km
Cloud details: Mostly cloudy 800 ft
Overcast 2900 ft
2021/08/04 08:55 KVPC 040855Z AUTO 00000KT 9SM BKN008 OVC029 20/19 A3001 RMK AO2
 
KMGE - Dobbins Afb/Mari, Georgia, USA
Distance from station: S 24mi, 39km
Updated: Wed, 04-Aug-2021 4:56am EDT
Mostly cloudy
Mostly cloudy
 Wind from calm
Wind: Calm
Temperature: 68°F , 20°C
Dew Point: 68°F , 20°C
Humidity: 100%
Barometer: 30.00 inHg , 1015.9 hPa
Clouds: Mostly cloudy
Visibility: 10 miles , 16 km
Cloud details: Mostly cloudy 3400 ft
2021/08/04 08:56 KMGE 040856Z AUTO 00000KT 10SM BKN034 20/20 A3000 RMK AO2 SLP152 T02030198 55001 $
KPDK - Peachtree/Dekalb, Georgia, USA
Distance from station: SSE 29mi, 47km
Updated: Wed, 04-Aug-2021 4:53am EDT
Mist, Partly cloudy
Mist, Partly cloudy
 Wind from calm
Wind: Calm
Temperature: 70°F , 21°C
Dew Point: 68°F , 20°C
Humidity: 94%
Barometer: 30.00 inHg , 1015.9 hPa
Summary: Mist
Clouds: Partly cloudy
Visibility: 6 miles , 10 km
Cloud details: Partly cloudy 3200 ft
2021/08/04 08:53 KPDK 040853Z 00000KT 6SM BR SCT032 21/20 A3000 RMK AO2 SLP145 T02060200 55001
KFTY - Atlanta/Fulton, Georgia, USA
Distance from station: S 34mi, 54km
Updated: Wed, 04-Aug-2021 4:53am EDT
Overcast
Overcast
 Wind from calm
Wind: Calm
Temperature: 68°F , 20°C
Dew Point: 66°F , 19°C
Humidity: 94%
Barometer: 30.00 inHg , 1015.9 hPa
Clouds: Overcast
Visibility: 8 miles , 13 km
Cloud details: Overcast 2700 ft
2021/08/04 08:53 KFTY 040853Z 00000KT 8SM OVC027 20/19 A3000 RMK AO2 SLP148 T02000194 55001
 
KPUJ - Atlanta/Paulding, Georgia, USA
Distance from station: SW 34mi, 55km
Updated: Wed, 04-Aug-2021 4:55am EDT
Mist, Overcast
Mist, Overcast
 Wind from calm
Wind: Calm
Temperature: 64°F , 18°C
Dew Point: 64°F , 18°C
Humidity: 100%
Barometer: 30.02 inHg , 1016.6 hPa
Summary: Mist
Clouds: Overcast
Visibility: 3/4 mile , 1.2 km
Cloud details: Mostly cloudy 200 ft
Mostly cloudy 700 ft
Overcast 1200 ft
2021/08/04 08:55 KPUJ 040855Z AUTO 00000KT 3/4SM BR BKN002 BKN007 OVC012 18/18 A3002 RMK AO2
KDNN - Dalton, Georgia, USA
Distance from station: NW 37mi, 59km
Updated: Wed, 04-Aug-2021 4:55am EDT
Clear
Clear
 Wind from calm
Wind: Calm
Temperature: 68°F , 20°C
Dew Point: 64°F , 18°C
Humidity: 88%
Barometer: 30.03 inHg , 1016.9 hPa
Clouds: Clear
Visibility: 10 miles , 16 km
2021/08/04 08:55 KDNN 040855Z AUTO 00000KT 10SM CLR 20/18 A3003 RMK AO2
KLZU - Lawrenceville, Georgia, USA
Distance from station: ESE 37mi, 59km
Updated: Wed, 04-Aug-2021 4:56am EDT
Mostly cloudy
Mostly cloudy
 Wind from ENE
Wind: ENE 6 mph , 9 km/h
Temperature: 70°F , 21°C
Dew Point: 66°F , 19°C
Humidity: 88%
Barometer: 30.01 inHg , 1016.3 hPa
Clouds: Mostly cloudy
Visibility: 10 miles , 16 km
Cloud details: Few Clouds 800 ft
Mostly cloudy 4900 ft
2021/08/04 08:56 KLZU 040856Z AUTO 06005KT 10SM FEW008 BKN049 21/19 A3001 RMK AO2 SLP163 P0001 60001 T02060194 58001
 
KRMG - Rome, Georgia, USA
Distance from station: W 38mi, 61km
Updated: Wed, 04-Aug-2021 4:53am EDT
Few Clouds
Few Clouds
 Wind from calm
Wind: Calm
Temperature: 68°F , 20°C
Dew Point: 64°F , 18°C
Humidity: 88%
Barometer: 30.00 inHg , 1015.9 hPa
Clouds: Few Clouds
Visibility: 9 miles , 14 km
Cloud details: Few Clouds 3300 ft
2021/08/04 08:53 KRMG 040853Z AUTO 00000KT 9SM FEW033 20/18 A3000 RMK AO2 SLP148 T02000178 53002
KGVL - Gainesville, Georgia, USA
Distance from station: E 39mi, 62km
Updated: Wed, 04-Aug-2021 4:53am EDT
Overcast
Overcast
 Wind from E
Wind: E 7 mph , 11 km/h
Temperature: 70°F , 21°C
Dew Point: 64°F , 18°C
Humidity: 83%
Barometer: 30.04 inHg , 1017.3 hPa
Clouds: Overcast
Visibility: 9 miles , 14 km
Cloud details: Few Clouds 1600 ft
Overcast 3900 ft
2021/08/04 08:53 KGVL 040853Z AUTO 09006KT 9SM FEW016 OVC039 21/18 A3004 RMK AO2 SLP157 T02060183 53001
KATL - Atlanta, Georgia, USA
Distance from station: S 44mi, 71km
Updated: Wed, 04-Aug-2021 4:52am EDT
Partly cloudy
Partly cloudy
 Wind from E
Wind: E 7 mph , 11 km/h
Temperature: 70°F , 21°C
Dew Point: 66°F , 19°C
Humidity: 88%
Barometer: 30.00 inHg , 1015.9 hPa
Clouds: Partly cloudy
Visibility: 8 miles , 13 km
Cloud details: Few Clouds 700 ft
Partly cloudy 2100 ft
2021/08/04 08:52 KATL 040852Z 08006KT 8SM FEW007 SCT021 21/19 A3000 RMK AO2 SLP148 T02110194 55002